createdAt,value
2022-12-12T00:02:12.090Z,99962.19
2022-12-12T00:07:15.484Z,99965.75
2022-12-12T00:12:19.687Z,99975.31
2022-12-12T00:17:22.451Z,99970.78
2022-12-12T00:22:25.288Z,99978.19
2022-12-12T00:27:29.446Z,99975.63
2022-12-12T00:32:33.315Z,99972.75
2022-12-12T00:37:36.136Z,99968.50
2022-12-12T00:42:40.283Z,99981.13
2022-12-12T00:47:43.228Z,99976.13
2022-12-12T00:52:46.097Z,99975.94
2022-12-12T00:57:50.260Z,99977.84
2022-12-12T01:02:53.359Z,99986.78
2022-12-12T01:07:56.139Z,99997.34
2022-12-12T01:13:00.273Z,100003.66
2022-12-12T01:18:03.079Z,100006.47
2022-12-12T01:23:05.835Z,100012.59
2022-12-12T01:28:10.648Z,100010.13
2022-12-12T01:33:13.440Z,100019.19
2022-12-12T01:38:16.224Z,100017.47
2022-12-12T01:43:22.428Z,100020.06
2022-12-12T01:48:28.389Z,100022.97
2022-12-12T01:53:34.250Z,100027.50
2022-12-12T01:58:38.467Z,100026.66
2022-12-12T02:03:43.169Z,100024.19
2022-12-12T02:08:47.611Z,100024.41
2022-12-12T02:13:52.129Z,100028.91
2022-12-12T02:19:04.761Z,100029.00
2022-12-12T02:24:45.861Z,100032.59
2022-12-12T02:30:10.064Z,100022.28
2022-12-12T02:35:21.965Z,100030.50
2022-12-12T02:40:35.661Z,100025.31
2022-12-12T02:45:42.212Z,100027.94
2022-12-12T02:50:48.960Z,100028.91
2022-12-12T02:56:02.768Z,100030.59
2022-12-12T03:01:21.060Z,100038.75
2022-12-12T03:07:00.789Z,100039.59
2022-12-12T03:12:08.788Z,100049.88
2022-12-12T03:17:16.985Z,100037.56
2022-12-12T03:22:28.147Z,100033.09
2022-12-12T03:27:35.587Z,100032.25
2022-12-12T03:32:43.714Z,100029.53
2022-12-12T03:37:52.286Z,100033.16
2022-12-12T03:43:01.671Z,100029.50
2022-12-12T03:48:10.462Z,100028.56
2022-12-12T03:53:20.361Z,100041.75
2022-12-12T03:58:29.959Z,100040.84
2022-12-12T04:03:40.495Z,100038.13
2022-12-12T04:09:05.384Z,100032.25
2022-12-12T04:14:22.597Z,100039.19
2022-12-12T04:19:53.821Z,100043.63
2022-12-12T04:25:03.557Z,100045.22
2022-12-12T04:30:08.318Z,100045.47
2022-12-12T04:35:15.007Z,100049.03
2022-12-12T04:40:24.403Z,100055.19
2022-12-12T04:45:31.546Z,100064.03
2022-12-12T04:50:36.237Z,100069.19
2022-12-12T04:55:45.500Z,100064.97
2022-12-12T05:00:53.686Z,100061.84
2022-12-12T05:06:00.643Z,100074.78
2022-12-12T05:11:06.741Z,100076.75
2022-12-12T05:16:17.558Z,100075.94
2022-12-12T05:21:20.544Z,100080.69
2022-12-12T05:26:27.204Z,100080.47
2022-12-12T05:31:29.956Z,100077.09
2022-12-12T05:36:32.783Z,100079.81
2022-12-12T05:41:36.888Z,100077.03
2022-12-12T05:46:39.702Z,100087.66
2022-12-12T05:51:42.445Z,100092.81
2022-12-12T05:56:46.536Z,100085.72
2022-12-12T06:01:49.346Z,100087.41
2022-12-12T06:06:52.167Z,100086.47
2022-12-12T06:11:56.413Z,100090.03
2022-12-12T06:16:59.231Z,100088.50
2022-12-12T06:22:04.841Z,100093.25
2022-12-12T06:27:08.959Z,100097.75
2022-12-12T06:32:11.739Z,100083.88
2022-12-12T06:37:17.432Z,100093.69
2022-12-12T06:42:21.677Z,100103.94
2022-12-12T06:47:24.415Z,100101.00
2022-12-12T06:52:27.145Z,100108.06
2022-12-12T06:57:31.360Z,100112.81
2022-12-12T07:02:34.267Z,100113.94
2022-12-12T07:07:37.122Z,100120.38
2022-12-12T07:12:42.636Z,100126.34
2022-12-12T07:17:48.230Z,100128.09
2022-12-12T07:22:50.967Z,100126.03
2022-12-12T07:27:55.168Z,100119.31
2022-12-12T07:32:58.099Z,100129.84
2022-12-12T07:38:00.867Z,100131.69
2022-12-12T07:43:05.371Z,100129.72
2022-12-12T07:48:08.120Z,100138.19
2022-12-12T07:53:10.888Z,100136.63
2022-12-12T07:58:15.007Z,100143.09
2022-12-12T08:03:17.769Z,100150.78
2022-12-12T08:08:21.038Z,100148.78
2022-12-12T08:13:25.215Z,100148.84
2022-12-12T08:18:27.982Z,100147.66
2022-12-12T08:23:30.779Z,100153.91
2022-12-12T08:28:34.979Z,100147.28
2022-12-12T08:33:37.941Z,100162.88
2022-12-12T08:38:40.782Z,100167.28
2022-12-12T08:43:45.856Z,100164.03
2022-12-12T08:48:49.584Z,100172.31
2022-12-12T08:53:53.811Z,100163.50
2022-12-12T08:58:58.514Z,100171.56
2022-12-12T09:04:01.343Z,100172.91
2022-12-12T09:09:04.214Z,100170.44
2022-12-12T09:14:08.366Z,100182.31
2022-12-12T09:19:11.242Z,100175.09
2022-12-12T09:24:14.047Z,100181.38
2022-12-12T09:29:18.531Z,100178.88
2022-12-12T09:34:21.310Z,100176.69
2022-12-12T09:39:24.051Z,100184.75
2022-12-12T09:44:28.165Z,100186.78
2022-12-12T09:49:43.746Z,100186.25
2022-12-12T09:54:47.184Z,100188.75
2022-12-12T09:59:57.768Z,100185.97
2022-12-12T10:05:03.817Z,100188.66
2022-12-12T10:10:20.451Z,100184.38
2022-12-12T10:15:32.310Z,100182.16
2022-12-12T10:20:41.504Z,100175.09
2022-12-12T10:25:50.776Z,100176.03
2022-12-12T10:31:06.323Z,100167.63
2022-12-12T10:36:18.615Z,100177.31
2022-12-12T10:41:32.892Z,100181.03
2022-12-12T10:46:43.431Z,100173.84
2022-12-12T10:51:49.352Z,100174.81
2022-12-12T10:57:18.048Z,100166.09
2022-12-12T11:02:38.665Z,100158.53
2022-12-12T11:07:44.716Z,100159.91
2022-12-12T11:12:47.512Z,100147.53
2022-12-12T11:17:51.735Z,100157.44
2022-12-12T11:22:56.714Z,100160.63
2022-12-12T11:28:06.364Z,100157.00
2022-12-12T11:33:22.089Z,100156.94
2022-12-12T11:38:29.472Z,100157.44
2022-12-12T11:43:33.665Z,100146.16
2022-12-12T11:48:41.849Z,100138.00
2022-12-12T11:53:46.144Z,100148.34
2022-12-12T11:58:57.360Z,100151.44
2022-12-12T12:04:20.024Z,100145.81
2022-12-12T12:09:33.672Z,100142.75
2022-12-12T12:14:54.644Z,100144.19
2022-12-12T12:20:08.197Z,100147.09
2022-12-12T12:25:25.083Z,100135.41
2022-12-12T12:30:32.503Z,100139.56
2022-12-12T12:35:46.904Z,100139.38
2022-12-12T12:41:09.618Z,100132.34
2022-12-12T12:46:19.238Z,100128.84
2022-12-12T12:51:28.360Z,100125.94
2022-12-12T12:56:33.223Z,100115.47
2022-12-12T13:01:40.260Z,100119.94
2022-12-12T13:06:51.468Z,100122.50
2022-12-12T13:11:59.799Z,100124.25
2022-12-12T13:17:07.201Z,100135.13
2022-12-12T13:22:16.552Z,100130.63
2022-12-12T13:27:24.665Z,100134.16
2022-12-12T13:33:03.630Z,100135.84
2022-12-12T13:38:18.944Z,100135.84
2022-12-12T13:43:30.276Z,100142.66
2022-12-12T13:48:47.281Z,100134.06
2022-12-12T13:54:14.427Z,100137.28
2022-12-12T13:59:30.445Z,100141.66
2022-12-12T14:04:34.767Z,100134.16
2022-12-12T14:09:48.471Z,100136.13
2022-12-12T14:14:56.840Z,100137.81
2022-12-12T14:20:01.155Z,100140.47
2022-12-12T14:25:20.294Z,100140.66
2022-12-12T14:30:25.408Z,100136.47
2022-12-12T14:35:35.475Z,100140.97
2022-12-12T14:40:44.668Z,100140.44
2022-12-12T14:45:56.890Z,100134.69
2022-12-12T14:51:09.079Z,100144.28
2022-12-12T14:56:15.584Z,100150.19
2022-12-12T15:01:27.951Z,100146.16
2022-12-12T15:06:32.172Z,100145.34
2022-12-12T15:11:36.749Z,100156.13
2022-12-12T15:16:48.416Z,100157.53
2022-12-12T15:21:52.129Z,100155.63
2022-12-12T15:26:58.850Z,100165.84
2022-12-12T15:32:04.982Z,100160.09
2022-12-12T15:37:13.452Z,100159.56
2022-12-12T15:42:17.672Z,100160.84
2022-12-12T15:47:21.752Z,100152.25
2022-12-12T15:52:28.326Z,100148.38
2022-12-12T15:57:44.568Z,100151.69
2022-12-12T16:02:58.585Z,100151.81
2022-12-12T16:08:44.190Z,100166.88
2022-12-12T16:13:48.403Z,100169.50
2022-12-12T16:18:51.465Z,100164.34
2022-12-12T16:23:54.277Z,100164.22
2022-12-12T16:28:58.442Z,100171.16
2022-12-12T16:34:04.458Z,100176.31
2022-12-12T16:39:07.381Z,100179.94
2022-12-12T16:44:11.529Z,100179.16
2022-12-12T16:49:15.609Z,100180.72
2022-12-12T16:54:18.866Z,100169.34
2022-12-12T16:59:23.098Z,100174.78
2022-12-12T17:04:26.609Z,100167.84
2022-12-12T17:09:30.277Z,100166.53
2022-12-12T17:14:34.517Z,100173.00
2022-12-12T17:19:37.393Z,100164.34
2022-12-12T17:24:40.395Z,100178.78
2022-12-12T17:29:44.807Z,100171.03
2022-12-12T17:34:47.616Z,100168.88
2022-12-12T17:39:50.403Z,100175.88
2022-12-12T17:44:54.581Z,100174.97
2022-12-12T17:49:57.778Z,100171.84
2022-12-12T17:55:53.786Z,100180.13
2022-12-12T18:00:25.792Z,100185.63
2022-12-12T18:05:28.744Z,100180.56
2022-12-12T18:10:31.541Z,100179.94
2022-12-12T18:15:35.681Z,100170.50
2022-12-12T18:20:39.935Z,100174.16
2022-12-12T18:25:42.756Z,100173.44
2022-12-12T18:30:49.721Z,100181.44
2022-12-12T18:35:52.688Z,100173.56
2022-12-12T18:40:55.529Z,100178.09
2022-12-12T18:46:04.839Z,100183.63
2022-12-12T18:51:09.207Z,100188.19
2022-12-12T18:56:15.917Z,100188.19
2022-12-12T19:01:22.701Z,100202.09
2022-12-12T19:06:31.645Z,100200.03
2022-12-12T19:11:37.366Z,100196.13
2022-12-12T19:16:42.062Z,100191.91
2022-12-12T19:21:46.313Z,100193.25
2022-12-12T19:26:49.753Z,100183.06
2022-12-12T19:31:58.669Z,100187.91
2022-12-12T19:37:02.635Z,100183.91
2022-12-12T19:42:05.437Z,100178.66
2022-12-12T19:47:09.625Z,100192.00
2022-12-12T19:52:14.567Z,100186.06
2022-12-12T19:57:17.679Z,100187.13
2022-12-12T20:02:21.817Z,100194.91
2022-12-12T20:07:24.589Z,100175.66
2022-12-12T20:12:27.362Z,100178.41
2022-12-12T20:17:31.434Z,100170.16
2022-12-12T20:22:34.290Z,100185.25
2022-12-12T20:27:37.068Z,100180.97
2022-12-12T20:32:41.183Z,100174.13
2022-12-12T20:37:44.100Z,100182.94
2022-12-12T20:42:54.136Z,100196.00
2022-12-12T20:48:04.391Z,100196.19
2022-12-12T20:53:10.911Z,100198.63
2022-12-12T20:58:13.692Z,100197.19
2022-12-12T21:03:18.051Z,100190.28
2022-12-12T21:08:21.340Z,100193.81
2022-12-12T21:13:25.388Z,100191.41
2022-12-12T21:18:31.739Z,100187.91
2022-12-12T21:23:35.014Z,100188.16
2022-12-12T21:28:38.189Z,100185.69
2022-12-12T21:33:42.418Z,100177.13
2022-12-12T21:38:45.572Z,100175.50
2022-12-12T21:43:48.853Z,100180.75
2022-12-12T21:49:08.331Z,100176.28
2022-12-12T21:54:13.088Z,100175.41
2022-12-12T21:59:17.080Z,100181.59
2022-12-12T22:04:21.234Z,100176.19
2022-12-12T22:09:24.351Z,100179.66
2022-12-12T22:14:27.369Z,100177.75
2022-12-12T22:19:31.903Z,100184.59
2022-12-12T22:24:34.656Z,100181.84
2022-12-12T22:29:37.635Z,100193.34
2022-12-12T22:34:41.773Z,100197.78
2022-12-12T22:39:44.741Z,100193.47
2022-12-12T22:44:47.589Z,100194.31
2022-12-12T22:49:52.576Z,100191.69
2022-12-12T22:54:55.434Z,100188.22
2022-12-12T22:59:58.206Z,100182.00
2022-12-12T23:05:02.348Z,100202.03
2022-12-12T23:10:05.931Z,100197.69
2022-12-12T23:15:09.856Z,100194.28
2022-12-12T23:20:14.020Z,100200.56
2022-12-12T23:25:17.259Z,100189.13
2022-12-12T23:30:20.244Z,100192.59
2022-12-12T23:35:24.315Z,100186.59
2022-12-12T23:40:27.111Z,100188.22
2022-12-12T23:45:30.022Z,100183.19
2022-12-12T23:50:34.655Z,100177.38
2022-12-12T23:55:37.413Z,100174.06
